Time;durP1;ratioP1;P1;durP2;ratioP2;P2;SDS_P1;SDS_P2;PMS_P1;PMS_P2;Temp;Humidity;BMP_temperature;BMP_pressure;BME280_temperature;BME280_humidity;BME280_pressure;Samples;Min_cycle;Max_cycle;Signal;HPM_P1;HPM_P2
2024/01/13 00:00:53;;;;;;;14.83;7.87;;;;;;;2.03;100.00;102820.16;4953152;28;20110;-89
2024/01/13 00:03:19;;;;;;;14.50;8.00;;;;;;;2.04;100.00;102815.91;4953203;29;20601;-88
2024/01/13 00:05:44;;;;;;;17.23;8.70;;;;;;;2.02;100.00;102813.25;4953018;29;20116;-89
2024/01/13 00:08:09;;;;;;;18.27;8.90;;;;;;;2.02;100.00;102804.69;4952904;29;20031;-89
2024/01/13 00:10:35;;;;;;;16.77;7.67;;;;;;;2.03;100.00;102809.88;4952954;28;20408;-89
2024/01/13 00:13:00;;;;;;;16.80;8.30;;;;;;;2.03;100.00;102803.88;4935648;29;20031;-89
2024/01/13 00:15:25;;;;;;;15.93;8.03;;;;;;;2.03;100.00;102801.31;4952849;28;20035;-89
2024/01/13 00:17:51;;;;;;;15.27;7.90;;;;;;;2.02;100.00;102803.00;4952106;29;20031;-89
2024/01/13 00:20:16;;;;;;;12.87;8.00;;;;;;;2.02;100.00;102802.13;4952586;28;20031;-89
2024/01/13 00:22:47;;;;;;;14.30;7.50;;;;;;;2.03;100.00;102803.88;4952238;29;20042;-88
2024/01/13 00:25:13;;;;;;;16.23;7.65;;;;;;;2.01;100.00;102797.81;4936246;29;20074;-89
2024/01/13 00:27:38;;;;;;;15.13;8.00;;;;;;;2.00;100.00;102790.91;4952149;29;20038;-88
2024/01/13 00:30:04;;;;;;;13.83;7.97;;;;;;;1.98;100.00;102793.41;4952853;29;20027;-88
2024/01/13 00:32:30;;;;;;;14.27;7.93;;;;;;;1.96;100.00;102795.91;4952108;28;20081;-89
2024/01/13 00:34:55;;;;;;;14.93;8.20;;;;;;;1.97;100.00;102791.63;4952047;29;20370;-88
2024/01/13 00:37:21;;;;;;;13.03;7.40;;;;;;;1.97;100.00;102789.97;4951943;29;20052;-89
2024/01/13 00:39:46;;;;;;;13.60;7.63;;;;;;;1.96;100.00;102787.34;4935765;29;20142;-90
2024/01/13 00:42:11;;;;;;;15.13;7.83;;;;;;;1.96;100.00;102780.50;4951388;28;20081;-88
2024/01/13 00:44:37;;;;;;;14.00;8.33;;;;;;;1.96;100.00;102777.09;4950983;29;20031;-88
2024/01/13 00:47:02;;;;;;;15.73;8.10;;;;;;;1.96;100.00;102772.81;4967349;28;20087;-89
2024/01/13 00:49:27;;;;;;;13.83;8.23;;;;;;;1.96;100.00;102767.69;4951984;29;20070;-90
2024/01/13 00:51:53;;;;;;;15.50;8.33;;;;;;;1.97;100.00;102768.53;4935524;29;20031;-89
2024/01/13 00:54:18;;;;;;;15.53;8.07;;;;;;;1.96;100.00;102770.25;4952062;29;20023;-89
2024/01/13 00:56:43;;;;;;;19.00;8.13;;;;;;;1.96;100.00;102759.97;4951535;29;20115;-89
2024/01/13 00:59:09;;;;;;;17.53;8.20;;;;;;;1.94;100.00;102759.03;4951702;29;20025;-89
2024/01/13 01:01:34;;;;;;;12.60;7.70;;;;;;;1.96;100.00;102757.41;4951636;28;20046;-90
2024/01/13 01:04:00;;;;;;;12.97;7.40;;;;;;;1.95;100.00;102758.22;4951406;29;20077;-89
2024/01/13 01:06:25;;;;;;;12.77;7.60;;;;;;;1.94;100.00;102751.34;4951151;29;20046;-88
2024/01/13 01:08:51;;;;;;;12.37;7.60;;;;;;;1.95;100.00;102753.09;4951288;29;20523;-89
2024/01/13 01:11:16;;;;;;;14.07;7.53;;;;;;;1.95;100.00;102755.66;4950744;28;20035;-90
2024/01/13 01:13:41;;;;;;;12.67;7.70;;;;;;;1.95;100.00;102741.97;4935062;29;20051;-90
2024/01/13 01:16:07;;;;;;;14.63;8.00;;;;;;;1.95;100.00;102745.38;4951203;28;20134;-90
2024/01/13 01:18:33;;;;;;;13.83;7.97;;;;;;;1.95;100.00;102745.38;4951116;29;20027;-90
2024/01/13 01:20:58;;;;;;;16.07;8.10;;;;;;;1.95;100.00;102742.81;4951286;28;20110;-89
2024/01/13 01:23:24;;;;;;;16.63;8.00;;;;;;;1.95;100.00;102737.69;4951310;29;20027;-90
2024/01/13 01:25:50;;;;;;;14.80;7.87;;;;;;;1.96;100.00;102736.88;4966782;28;20035;-89
2024/01/13 01:28:15;;;;;;;14.00;7.93;;;;;;;1.95;100.00;102735.13;4950780;29;20046;-89
2024/01/13 01:30:41;;;;;;;11.20;7.43;;;;;;;1.95;100.00;102735.13;4951112;28;20027;-89
2024/01/13 01:33:06;;;;;;;12.53;7.20;;;;;;;1.96;100.00;102728.31;4951195;29;20540;-89
2024/01/13 01:35:31;;;;;;;13.20;7.10;;;;;;;1.96;100.00;102728.31;4967073;28;20108;-89
2024/01/13 01:37:56;;;;;;;14.63;7.97;;;;;;;1.95;100.00;102721.44;4951022;29;20125;-89
2024/01/13 01:40:24;;;;;;;15.10;7.53;;;;;;;1.96;100.00;102725.75;4935577;28;20551;-89
2024/01/13 01:42:50;;;;;;;13.50;7.47;;;;;;;1.96;100.00;102718.03;4951051;28;20046;-89
2024/01/13 01:45:15;;;;;;;13.43;7.63;;;;;;;1.96;100.00;102718.91;4951268;28;20031;-89
2024/01/13 01:47:41;;;;;;;13.10;7.30;;;;;;;1.99;100.00;102725.84;4950549;29;20031;-89
2024/01/13 01:50:08;;;;;;;13.63;7.90;;;;;;;1.97;100.00;102723.22;4949777;29;20478;-90
2024/01/13 01:52:35;;;;;;;12.27;7.70;;;;;;;1.97;100.00;102730.94;4950607;29;20062;-89
2024/01/13 01:55:00;;;;;;;12.83;7.80;;;;;;;1.96;100.00;102718.91;4949315;29;20031;-89
2024/01/13 01:57:26;;;;;;;11.33;7.20;;;;;;;1.96;100.00;102713.78;4950416;29;20106;-90
2024/01/13 01:59:51;;;;;;;13.57;7.33;;;;;;;1.95;100.00;102714.59;4950088;29;20311;-89
2024/01/13 02:02:17;;;;;;;12.87;7.77;;;;;;;1.96;100.00;102721.47;4950539;28;20058;-90
2024/01/13 02:04:43;;;;;;;11.53;7.20;;;;;;;1.93;100.00;102708.50;4950149;29;20054;-89
2024/01/13 02:07:09;;;;;;;12.00;7.30;;;;;;;1.96;100.00;102713.78;4933651;29;20065;-90
2024/01/13 02:09:35;;;;;;;14.77;7.83;;;;;;;1.96;100.00;102710.34;4950081;29;20039;-90
2024/01/13 02:12:00;;;;;;;13.47;7.47;;;;;;;1.95;100.00;102701.75;4950514;28;20031;-90
2024/01/13 02:14:26;;;;;;;13.73;7.67;;;;;;;1.93;100.00;102700.81;4949999;29;20035;-90
2024/01/13 02:16:53;;;;;;;12.40;7.17;;;;;;;1.91;100.00;102696.44;4950301;29;20047;-89
2024/01/13 02:19:18;;;;;;;12.50;7.47;;;;;;;1.90;100.00;102697.25;4950026;29;20034;-90
2024/01/13 02:21:43;;;;;;;13.60;7.97;;;;;;;1.90;100.00;102700.69;4934517;29;20027;-90
2024/01/13 02:24:09;;;;;;;11.90;7.03;;;;;;;1.89;100.00;102691.22;4950841;29;20027;-90
2024/01/13 02:26:35;;;;;;;11.77;7.20;;;;;;;1.90;100.00;102689.56;4950353;29;20035;-89
2024/01/13 02:29:00;;;;;;;12.93;7.40;;;;;;;1.91;100.00;102692.16;4950482;29;20031;-89
2024/01/13 02:31:26;;;;;;;13.80;7.50;;;;;;;1.93;100.00;102682.84;4950222;28;20058;-89
2024/01/13 02:33:52;;;;;;;11.83;7.40;;;;;;;1.93;100.00;102675.13;4934573;28;20039;-89
2024/01/13 02:36:17;;;;;;;14.13;7.17;;;;;;;1.96;100.00;102679.53;4950634;29;20393;-89
2024/01/13 02:38:42;;;;;;;13.07;7.33;;;;;;;1.95;100.00;102668.38;4968631;28;20031;-89
2024/01/13 02:41:08;;;;;;;11.47;7.20;;;;;;;1.95;100.00;102658.13;4949611;28;20061;-89
2024/01/13 02:43:34;;;;;;;13.47;7.07;;;;;;;1.95;100.00;102657.25;4950987;29;20031;-89
2024/01/13 02:45:59;;;;;;;12.57;7.50;;;;;;;1.91;100.00;102656.22;4950471;29;20066;-89
2024/01/13 02:48:25;;;;;;;12.67;7.87;;;;;;;1.92;100.00;102647.72;4933466;29;20389;-89
2024/01/13 02:50:58;;;;;;;11.80;6.97;;;;;;;1.90;100.00;102646.78;4950376;28;20468;-90
2024/01/13 02:53:24;;;;;;;10.27;6.60;;;;;;;1.90;100.00;102646.78;4950391;29;20441;-89
2024/01/13 02:55:49;;;;;;;13.63;7.27;;;;;;;1.89;100.00;102641.59;4952268;28;20042;-89
2024/01/13 02:58:14;;;;;;;14.30;7.97;;;;;;;1.89;100.00;102631.34;4953729;29;20050;-89
2024/01/13 03:00:40;;;;;;;14.50;7.70;;;;;;;1.86;100.00;102621.84;4938375;29;20031;-89
2024/01/13 03:03:05;;;;;;;11.60;6.93;;;;;;;1.84;100.00;102620.91;4938068;29;20087;-88
2024/01/13 03:05:31;;;;;;;14.07;8.50;;;;;;;1.82;100.00;102615.69;4953962;29;20023;-89
2024/01/13 03:07:56;;;;;;;11.73;7.27;;;;;;;1.83;100.00;102624.28;4953873;29;20023;-88
2024/01/13 03:10:21;;;;;;;14.47;7.90;;;;;;;1.81;100.00;102610.50;4968931;28;20467;-89
2024/01/13 03:12:47;;;;;;;14.10;8.30;;;;;;;1.79;100.00;102612.13;4953279;29;20417;-89
2024/01/13 03:15:12;;;;;;;14.50;8.33;;;;;;;1.78;100.00;102607.81;4938307;29;20453;-89
2024/01/13 03:17:37;;;;;;;12.73;7.53;;;;;;;1.76;100.00;102605.19;4953844;29;20603;-89
2024/01/13 03:20:03;;;;;;;12.40;8.13;;;;;;;1.76;100.00;102604.31;4953618;29;20035;-88
2024/01/13 03:22:28;;;;;;;12.07;7.60;;;;;;;1.75;100.00;102597.41;4953774;28;20038;-89
2024/01/13 03:24:55;;;;;;;14.40;8.37;;;;;;;1.77;100.00;102593.22;4953652;29;20493;-89
2024/01/13 03:27:20;;;;;;;12.07;7.83;;;;;;;1.78;100.00;102587.28;4953406;29;20050;-90
2024/01/13 03:29:46;;;;;;;13.37;8.27;;;;;;;1.76;100.00;102583.78;4953095;29;20094;-90
2024/01/13 03:32:11;;;;;;;13.87;8.33;;;;;;;1.76;100.00;102583.78;4953519;28;20114;-89
2024/01/13 03:34:36;;;;;;;12.37;8.17;;;;;;;1.76;100.00;102578.66;4953402;29;20031;-89
2024/01/13 03:37:02;;;;;;;12.07;7.53;;;;;;;1.75;100.00;102575.22;4937768;29;20425;-90
2024/01/13 03:39:27;;;;;;;12.87;8.30;;;;;;;1.77;100.00;102562.44;4937952;29;20075;-90
2024/01/13 03:41:52;;;;;;;14.03;7.73;;;;;;;1.75;100.00;102564.97;4938159;29;20027;-90
2024/01/13 03:44:18;;;;;;;14.80;8.37;;;;;;;1.75;100.00;102566.63;4937533;29;20628;-90
2024/01/13 03:46:43;;;;;;;11.70;7.27;;;;;;;1.74;100.00;102565.78;4968943;28;20445;-89
2024/01/13 03:49:08;;;;;;;11.10;7.47;;;;;;;1.74;100.00;102559.75;4952586;29;20033;-89
2024/01/13 03:51:34;;;;;;;12.07;7.70;;;;;;;1.75;100.00;102551.22;4953063;28;20023;-89
2024/01/13 03:53:59;;;;;;;13.90;8.40;;;;;;;1.76;100.00;102550.41;4953304;29;20023;-89
2024/01/13 03:56:24;;;;;;;12.70;7.83;;;;;;;1.76;100.00;102547.84;4952670;29;20027;-90
2024/01/13 03:58:50;;;;;;;12.63;7.50;;;;;;;1.78;100.00;102543.66;4952388;29;20012;-89
2024/01/13 04:01:15;;;;;;;13.23;8.37;;;;;;;1.78;100.00;102541.09;4952780;28;20067;-89
2024/01/13 04:03:40;;;;;;;11.60;7.10;;;;;;;1.80;100.00;102536.91;4952967;29;20492;-89
2024/01/13 04:06:06;;;;;;;12.23;6.80;;;;;;;1.81;100.00;102539.50;4952088;28;20027;-88
2024/01/13 04:08:32;;;;;;;15.03;7.77;;;;;;;1.82;100.00;102537.84;4952213;29;20020;-89
2024/01/13 04:10:57;;;;;;;10.87;6.80;;;;;;;1.82;100.00;102532.69;4952436;28;20023;-89
2024/01/13 04:13:24;;;;;;;10.27;6.80;;;;;;;1.83;100.00;102534.44;4952547;29;20023;-89
2024/01/13 04:15:49;;;;;;;10.40;6.67;;;;;;;1.84;100.00;102528.50;4952845;29;20110;-89
2024/01/13 04:18:14;;;;;;;10.93;7.20;;;;;;;1.85;100.00;102531.94;4952567;29;20102;-88
2024/01/13 04:20:40;;;;;;;12.53;6.50;;;;;;;1.86;100.00;102531.13;4952049;28;20035;-88
2024/01/13 04:23:05;;;;;;;9.33;5.83;;;;;;;1.87;100.00;102525.16;4936829;29;20484;-89
2024/01/13 04:25:31;;;;;;;9.23;5.60;;;;;;;1.87;100.00;102520.94;4952242;29;20046;-88
2024/01/13 04:27:56;;;;;;;8.93;5.50;;;;;;;1.88;100.00;102522.66;4952043;29;20027;-88
2024/01/13 04:30:23;;;;;;;9.87;5.90;;;;;;;1.89;100.00;102513.28;4951893;28;20042;-88
2024/01/13 04:32:48;;;;;;;8.57;5.60;;;;;;;1.89;100.00;102505.56;4952193;29;20039;-88
2024/01/13 04:35:13;;;;;;;9.97;5.07;;;;;;;1.90;100.00;102515.03;4952611;29;20030;-89
2024/01/13 04:37:39;;;;;;;8.03;5.33;;;;;;;1.90;100.00;102518.44;4967637;28;20106;-89
2024/01/13 08:42:12;;;;;;;24.70;14.48;;;;;;;1.93;100.00;102302.13;4951967;28;20090;-91
2024/01/13 08:44:38;;;;;;;24.90;13.67;;;;;;;1.92;100.00;102311.50;4935961;29;20031;-90
2024/01/13 08:47:03;;;;;;;26.80;13.70;;;;;;;1.93;100.00;102300.41;4936340;29;20098;-90
2024/01/13 08:49:29;;;;;;;25.17;13.63;;;;;;;1.95;100.00;102301.34;4935960;29;20027;-91
2024/01/13 08:51:55;;;;;;;26.03;14.07;;;;;;;1.97;100.00;102311.63;4952960;28;20038;-90
2024/01/13 08:54:23;;;;;;;25.50;14.93;;;;;;;1.97;100.00;102304.81;4952994;29;20023;-90
2024/01/13 08:56:48;;;;;;;25.00;14.00;;;;;;;1.97;100.00;102309.97;4937006;29;20031;-90
2024/01/13 08:59:13;;;;;;;25.20;14.07;;;;;;;2.00;100.00;102308.31;4953032;29;20475;-90
2024/01/13 09:01:39;;;;;;;26.13;14.97;;;;;;;2.00;100.00;102301.47;4952795;28;20456;-91
2024/01/13 09:04:04;;;;;;;24.87;13.97;;;;;;;2.01;100.00;102297.25;4937399;29;20494;-91
2024/01/13 09:06:29;;;;;;;27.40;14.67;;;;;;;2.02;100.00;102304.97;4952469;29;20038;-91
2024/01/13 09:08:55;;;;;;;27.60;14.77;;;;;;;2.03;100.00;102311.00;4936495;29;20027;-91
2024/01/13 09:11:20;;;;;;;27.30;15.07;;;;;;;2.03;100.00;102305.88;4952367;28;20074;-91
2024/01/13 09:13:46;;;;;;;26.33;14.63;;;;;;;2.05;100.00;102305.09;4951810;29;20050;-91
2024/01/13 09:16:11;;;;;;;26.90;14.87;;;;;;;2.05;100.00;102306.78;4967971;28;20066;-91
2024/01/13 09:18:36;;;;;;;26.77;15.00;;;;;;;2.07;100.00;102300.00;4935454;29;20046;-92
2024/01/13 09:21:02;;;;;;;24.10;13.57;;;;;;;2.06;100.00;102309.41;4950909;28;20067;-90
2024/01/13 09:23:27;;;;;;;24.50;14.23;;;;;;;2.08;100.00;102304.31;4951260;29;20031;-91
2024/01/13 09:25:52;;;;;;;24.83;14.27;;;;;;;2.07;100.00;102300.00;4951759;28;20043;-90
2024/01/13 09:28:18;;;;;;;26.67;15.47;;;;;;;2.08;100.00;102304.31;4952096;28;20035;-90
2024/01/13 09:30:43;;;;;;;27.97;15.03;;;;;;;2.09;100.00;102311.19;4951997;28;20042;-89
2024/01/13 09:33:08;;;;;;;28.00;14.80;;;;;;;2.10;100.00;102297.53;4936159;29;20535;-91
2024/01/13 09:35:34;;;;;;;25.77;14.77;;;;;;;2.09;100.00;102298.34;4951370;29;20515;-91
2024/01/13 09:38:00;;;;;;;26.23;14.53;;;;;;;2.10;100.00;102302.66;4951359;29;20480;-91
2024/01/13 09:40:25;;;;;;;23.73;14.00;;;;;;;2.10;100.00;102302.66;4951409;28;20480;-90
2024/01/13 09:43:00;;;;;;;25.87;14.23;;;;;;;2.10;100.00;102293.28;4953924;28;21339;-91
2024/01/13 09:45:27;;;;;;;25.03;14.20;;;;;;;2.12;100.00;102285.63;4953148;28;20035;-90
2024/01/13 09:47:54;;;;;;;26.30;13.13;;;;;;;2.12;100.00;102285.63;4952742;28;20027;-89
2024/01/13 09:50:20;;;;;;;26.17;14.70;;;;;;;2.13;100.00;102277.09;4954184;28;20093;-91
2024/01/13 09:52:46;;;;;;;25.87;14.93;;;;;;;2.14;100.00;102283.97;4955891;28;20431;-90
2024/01/13 09:55:15;;;;;;;28.83;15.40;;;;;;;2.15;100.00;102272.88;4956004;28;20038;-90
2024/01/13 09:57:41;;;;;;;25.00;14.57;;;;;;;2.15;100.00;102261.72;4954059;28;20043;-88
2024/01/13 10:00:08;;;;;;;27.40;14.13;;;;;;;2.15;100.00;102260.03;4954386;28;20369;-90
2024/01/13 10:02:33;;;;;;;26.30;14.20;;;;;;;2.17;100.00;102260.97;4936347;28;20038;-89
2024/01/13 10:04:59;;;;;;;27.60;15.43;;;;;;;2.18;100.00;102262.72;4936759;28;20058;-91
2024/01/13 10:07:27;;;;;;;26.67;14.23;;;;;;;2.18;100.00;102267.84;4938244;29;20035;-91
2024/01/13 10:09:53;;;;;;;25.13;14.50;;;;;;;2.17;100.00;102271.25;4937934;28;20461;-91
2024/01/13 10:12:18;;;;;;;26.43;13.77;;;;;;;2.20;100.00;102273.91;4938397;28;20045;-90
2024/01/13 10:14:44;;;;;;;26.13;14.30;;;;;;;2.20;100.00;102263.66;4950551;29;20027;-90
2024/01/13 10:17:10;;;;;;;26.07;14.47;;;;;;;2.23;100.00;102266.28;4951172;28;20027;-89
2024/01/13 10:19:40;;;;;;;26.17;14.60;;;;;;;2.26;100.00;102265.53;4935449;29;20028;-91
2024/01/13 10:22:06;;;;;;;28.47;14.30;;;;;;;2.28;100.00;102258.75;4952061;28;20451;-90
2024/01/13 10:24:31;;;;;;;28.87;14.87;;;;;;;2.27;100.00;102255.28;4951151;29;20064;-89
2024/01/13 10:26:57;;;;;;;24.60;14.97;;;;;;;2.28;100.00;102248.47;4950589;29;20137;-90
2024/01/13 10:29:25;;;;;;;26.33;15.63;;;;;;;2.28;100.00;102254.47;4951540;29;20024;-90
2024/01/13 10:31:51;;;;;;;26.63;15.00;;;;;;;2.28;100.00;102248.47;4950844;28;20031;-90
2024/01/13 10:34:19;;;;;;;25.13;14.63;;;;;;;2.28;100.00;102248.47;4951047;29;20337;-90
2024/01/13 10:36:45;;;;;;;23.93;14.27;;;;;;;2.27;100.00;102245.03;4935310;29;20436;-90
2024/01/13 10:39:10;;;;;;;26.77;14.90;;;;;;;2.27;100.00;102245.03;4951472;29;20102;-90
2024/01/13 10:41:41;;;;;;;24.83;14.73;;;;;;;2.28;100.00;102246.78;4950736;28;20086;-90
2024/01/13 10:44:09;;;;;;;22.88;13.40;;;;;;;2.28;100.00;102243.34;4934333;29;20031;-90
2024/01/13 10:46:37;;;;;;;24.13;13.53;;;;;;;2.30;100.00;102244.28;4950120;29;20027;-90
2024/01/13 10:49:09;;;;;;;22.80;13.40;;;;;;;2.31;100.00;102242.56;4966287;28;20028;-90
2024/01/13 10:51:52;;;;;;;23.50;13.00;;;;;;;2.31;100.00;102234.84;4949156;28;20178;-90
2024/01/13 10:54:19;;;;;;;21.43;12.63;;;;;;;2.32;100.00;102226.31;4949023;28;20035;-89
2024/01/13 10:56:44;;;;;;;20.33;12.23;;;;;;;2.33;100.00;102222.94;4949159;29;20029;-89
2024/01/13 10:59:10;;;;;;;20.33;12.47;;;;;;;2.33;100.00;102221.22;4950234;29;20028;-89
2024/01/13 11:01:38;;;;;;;20.13;12.60;;;;;;;2.36;100.00;102217.91;4934635;29;20448;-90
2024/01/13 11:04:04;;;;;;;20.20;12.50;;;;;;;2.36;100.00;102213.63;4946677;29;20398;-95
2024/01/13 11:06:30;;;;;;;21.70;13.43;;;;;;;2.36;100.00;102205.06;4948885;29;20027;-90
2024/01/13 11:08:56;;;;;;;21.10;12.60;;;;;;;2.36;100.00;102203.34;4948571;28;20023;-87
2024/01/13 11:11:26;;;;;;;21.03;12.37;;;;;;;2.36;100.00;102197.34;4950871;28;20034;-93
2024/01/13 11:14:06;;;;;;;19.87;12.43;;;;;;;2.37;100.00;102199.09;4950770;29;20101;-89
2024/01/13 11:16:35;;;;;;;20.37;12.57;;;;;;;2.36;100.00;102192.22;4954401;28;20094;-88
2024/01/13 11:19:00;;;;;;;18.77;11.83;;;;;;;2.36;100.00;102192.22;4954858;29;20527;-90
2024/01/13 11:21:32;;;;;;;18.37;11.53;;;;;;;2.38;100.00;102191.44;4970904;28;20037;-89
2024/01/13 11:24:07;;;;;;;19.63;11.97;;;;;;;2.39;100.00;102192.31;4954145;29;20027;-89
2024/01/13 11:26:42;;;;;;;20.03;12.23;;;;;;;2.40;100.00;102192.34;4954369;29;20716;-90
2024/01/13 11:29:17;;;;;;;18.73;11.93;;;;;;;2.40;100.00;102189.78;4952717;29;20038;-89
2024/01/13 11:31:45;;;;;;;18.57;11.57;;;;;;;2.41;100.00;102190.63;4952873;28;20059;-89
2024/01/13 11:34:14;;;;;;;19.63;12.00;;;;;;;2.41;100.00;102186.38;4938719;29;20035;-89
2024/01/13 11:36:44;;;;;;;24.23;11.83;;;;;;;2.42;100.00;102183.00;4952936;29;20120;-89
2024/01/13 11:39:09;;;;;;;21.33;12.17;;;;;;;2.45;100.00;102187.34;4954164;29;20023;-90
2024/01/13 11:41:41;;;;;;;21.33;12.70;;;;;;;2.45;100.00;102189.91;4937089;29;20039;-90
2024/01/13 11:44:08;;;;;;;20.67;11.43;;;;;;;2.45;100.00;102179.63;4953370;29;20031;-92
2024/01/13 11:46:37;;;;;;;19.97;12.50;;;;;;;2.45;100.00;102176.22;4953196;29;20100;-90
2024/01/13 11:49:03;;;;;;;19.23;11.63;;;;;;;2.43;100.00;102169.31;4948801;29;20031;-90
2024/01/13 11:51:59;;;;;;;17.80;11.43;;;;;;;2.46;100.00;102173.66;4952878;28;20038;-89
2024/01/13 11:54:25;;;;;;;17.70;11.67;;;;;;;2.45;100.00;102171.94;4951749;29;20027;-90
2024/01/13 11:56:52;;;;;;;15.83;10.23;;;;;;;2.45;100.00;102171.94;4953698;29;20094;-90
2024/01/13 11:59:18;;;;;;;16.57;11.00;;;;;;;2.44;100.00;102170.19;4952552;29;20102;-89
2024/01/13 12:01:45;;;;;;;18.97;10.80;;;;;;;2.46;100.00;102167.69;4937115;28;20480;-89
2024/01/13 12:04:11;;;;;;;18.57;11.57;;;;;;;2.46;100.00;102157.41;4968057;28;20078;-89
2024/01/13 12:06:36;;;;;;;18.47;10.40;;;;;;;2.45;100.00;102153.94;4953042;29;20061;-89
2024/01/13 12:09:02;;;;;;;17.17;10.87;;;;;;;2.45;100.00;102151.38;4953044;29;20058;-91
2024/01/13 12:11:28;;;;;;;18.10;11.07;;;;;;;2.42;100.00;102138.44;4952162;28;20058;-89
2024/01/13 12:13:53;;;;;;;16.63;10.07;;;;;;;2.40;100.00;102132.38;4952483;28;20031;-89
2024/01/13 12:16:19;;;;;;;17.93;10.70;;;;;;;2.39;100.00;102131.53;4953020;28;20027;-88
2024/01/13 12:18:47;;;;;;;16.70;10.07;;;;;;;2.40;100.00;102127.25;4953080;29;20050;-88
2024/01/13 12:21:14;;;;;;;18.97;10.47;;;;;;;2.42;100.00;102123.03;4953047;28;20043;-89
2024/01/13 12:23:40;;;;;;;18.83;10.43;;;;;;;2.40;100.00;102112.72;4953068;29;20062;-88
2024/01/13 12:26:05;;;;;;;17.67;10.73;;;;;;;2.40;100.00;102110.16;4952357;29;20142;-89
2024/01/13 12:28:32;;;;;;;19.77;11.33;;;;;;;2.43;100.00;102106.78;4950547;28;20130;-88
2024/01/13 12:31:05;;;;;;;17.77;11.00;;;;;;;2.41;100.00;102108.44;4953027;28;20055;-93
2024/01/13 12:33:31;;;;;;;18.30;10.87;;;;;;;2.40;100.00;102101.56;4956228;28;20519;-92
2024/01/13 12:36:01;;;;;;;20.27;11.23;;;;;;;2.38;100.00;102103.25;4970764;28;20034;-92
2024/01/13 12:38:30;;;;;;;17.33;10.97;;;;;;;2.37;100.00;102116.91;4936427;28;20105;-93
2024/01/13 12:40:57;;;;;;;19.00;11.20;;;;;;;2.41;100.00;102114.47;4954801;28;20423;-89
2024/01/13 12:43:23;;;;;;;18.70;10.73;;;;;;;2.35;100.00;102105.72;5062210;23;20046;-93
2024/01/13 12:45:49;;;;;;;19.80;10.83;;;;;;;2.36;100.00;102104.91;4956996;28;20070;-91
2024/01/13 12:48:18;;;;;;;18.30;10.30;;;;;;;2.33;100.00;102118.50;4975464;28;20034;-91
2024/01/13 12:50:44;;;;;;;19.83;10.80;;;;;;;2.33;100.00;102115.06;4973634;28;20316;-91
2024/01/13 12:53:11;;;;;;;21.07;11.87;;;;;;;2.34;100.00;102111.69;4955078;28;20034;-91
2024/01/13 12:55:36;;;;;;;18.13;10.60;;;;;;;2.33;100.00;102109.94;4972015;28;20035;-92
2024/01/13 12:58:02;;;;;;;18.60;10.57;;;;;;;2.31;100.00;102115.00;4974646;28;20076;-90
2024/01/13 13:00:30;;;;;;;22.57;12.70;;;;;;;2.28;100.00;102112.38;4956199;28;20106;-93
2024/01/13 13:03:09;;;;;;;18.73;10.43;;;;;;;2.30;100.00;102110.72;4975678;28;20051;-94
2024/01/13 13:05:35;;;;;;;22.13;11.77;;;;;;;2.28;100.00;102108.09;4974498;28;20034;-93
2024/01/13 13:08:00;;;;;;;19.97;11.20;;;;;;;2.26;100.00;102104.63;4978929;28;20096;-92
2024/01/13 13:10:25;;;;;;;22.67;11.27;;;;;;;2.23;100.00;102099.38;4972910;28;20707;-92
2024/01/13 13:12:51;;;;;;;22.10;11.40;;;;;;;2.23;100.00;102090.81;4956531;28;20093;-92
2024/01/13 13:15:16;;;;;;;21.27;11.87;;;;;;;2.22;100.00;102095.06;4950141;28;20547;-92
2024/01/13 13:17:42;;;;;;;22.77;12.03;;;;;;;2.27;100.00;102090.94;4941788;28;20117;-91
2024/01/13 13:20:08;;;;;;;23.97;12.30;;;;;;;2.22;100.00;102092.50;4954255;28;20317;-91
2024/01/13 13:22:37;;;;;;;20.53;10.97;;;;;;;2.22;100.00;102094.22;4962988;28;20035;-93
2024/01/13 13:25:07;;;;;;;21.97;10.97;;;;;;;2.22;100.00;102087.38;4950844;28;20061;-94
2024/01/13 13:27:33;;;;;;;24.20;12.63;;;;;;;2.21;100.00;102090.78;4954632;28;20118;-92
2024/01/13 13:29:59;;;;;;;28.13;13.60;;;;;;;2.20;100.00;102086.47;4955981;28;20511;-91
2024/01/13 13:32:25;;;;;;;27.93;13.93;;;;;;;2.18;100.00;102075.28;4953599;28;20062;-92
2024/01/13 13:34:50;;;;;;;24.77;12.53;;;;;;;2.17;100.00;102062.38;4954847;28;20039;-93
2024/01/13 13:37:16;;;;;;;25.03;13.27;;;;;;;2.17;100.00;102058.16;4955610;28;20026;-93
2024/01/13 13:39:41;;;;;;;24.63;12.90;;;;;;;2.20;100.00;102065.06;4972251;28;20368;-93
2024/01/13 13:42:07;;;;;;;25.70;13.33;;;;;;;2.18;100.00;102061.56;4955158;28;20026;-94
2024/01/13 13:44:34;;;;;;;23.57;12.87;;;;;;;2.18;100.00;102067.59;4955551;28;20030;-92
2024/01/13 13:47:01;;;;;;;21.70;12.03;;;;;;;2.19;100.00;102061.63;4954636;28;20045;-92
2024/01/13 13:49:26;;;;;;;22.87;12.23;;;;;;;2.22;100.00;102061.69;4954953;28;20023;-92
2024/01/13 13:51:53;;;;;;;22.93;11.97;;;;;;;2.25;100.00;102063.50;4972939;28;20106;-92
2024/01/13 13:54:19;;;;;;;21.37;11.60;;;;;;;2.28;100.00;102055.88;4973141;28;20034;-91
2024/01/13 13:56:44;;;;;;;25.43;12.80;;;;;;;2.30;100.00;102043.97;4972406;28;20039;-92
2024/01/13 13:59:10;;;;;;;25.50;12.73;;;;;;;2.32;100.00;102047.41;4953844;28;20364;-92
2024/01/13 14:01:35;;;;;;;25.20;12.80;;;;;;;2.34;100.00;102047.47;4953102;28;20058;-91
2024/01/13 14:04:03;;;;;;;24.83;12.90;;;;;;;2.33;100.00;102038.03;4953831;28;20109;-92
2024/01/13 14:06:28;;;;;;;26.43;13.30;;;;;;;2.33;100.00;102027.75;4971841;28;20476;-92
2024/01/13 14:08:54;;;;;;;25.10;12.63;;;;;;;2.34;100.00;102032.06;4973188;28;20150;-92
2024/01/13 14:11:19;;;;;;;26.90;13.67;;;;;;;2.35;100.00;102041.53;4956424;28;20096;-91
2024/01/13 14:13:45;;;;;;;28.83;13.50;;;;;;;2.34;100.00;102038.06;4955293;28;20022;-90
2024/01/13 14:16:10;;;;;;;26.20;13.07;;;;;;;2.33;100.00;102031.19;4971075;28;20082;-90
2024/01/13 14:18:36;;;;;;;28.13;13.67;;;;;;;2.36;100.00;102038.13;4952961;28;20034;-90
2024/01/13 14:21:01;;;;;;;28.40;13.73;;;;;;;2.36;100.00;102027.84;4970489;28;20030;-90
2024/01/13 14:23:26;;;;;;;27.83;13.47;;;;;;;2.35;100.00;102024.41;4970897;28;20029;-89
2024/01/13 14:25:52;;;;;;;28.73;13.50;;;;;;;2.35;100.00;102018.41;4953643;28;20049;-90
2024/01/13 14:28:18;;;;;;;28.70;14.50;;;;;;;2.37;100.00;102011.63;4970809;28;20480;-93
2024/01/13 14:30:44;;;;;;;30.73;14.50;;;;;;;2.36;100.00;102018.44;4953857;28;20026;-92
2024/01/13 14:33:09;;;;;;;33.13;15.30;;;;;;;2.36;100.00;102013.28;4971691;28;20026;-93
2024/01/13 14:35:35;;;;;;;32.00;15.27;;;;;;;2.37;100.00;102011.63;4954442;28;20019;-90
2024/01/13 14:38:00;;;;;;;30.73;15.13;;;;;;;2.35;100.00;102015.84;4972117;28;20531;-93
2024/01/13 14:40:28;;;;;;;31.13;14.77;;;;;;;2.35;100.00;102019.25;4955349;28;20082;-96
2024/01/13 14:42:53;;;;;;;29.60;14.40;;;;;;;2.32;100.00;102013.19;4956067;28;20388;-93
2024/01/13 14:45:19;;;;;;;29.97;14.53;;;;;;;2.32;100.00;102010.63;4954732;28;20064;-94
2024/01/13 14:47:44;;;;;;;30.23;13.83;;;;;;;2.31;100.00;102004.59;4952294;28;20471;-92
2024/01/13 14:50:10;;;;;;;29.47;14.90;;;;;;;2.34;100.00;102008.97;4945881;28;20035;-92
2024/01/13 14:52:35;;;;;;;28.70;13.97;;;;;;;2.32;100.00;102005.47;4968046;28;20023;-91
2024/01/13 14:55:00;;;;;;;29.30;14.23;;;;;;;2.32;100.00;101998.63;4957446;28;20054;-92
2024/01/13 14:57:26;;;;;;;29.37;14.27;;;;;;;2.30;100.00;101999.44;4975150;28;20057;-92
2024/01/13 14:59:52;;;;;;;29.03;14.20;;;;;;;2.30;100.00;101991.72;4975138;28;20019;-92
2024/01/13 15:02:19;;;;;;;31.43;14.37;;;;;;;2.30;100.00;101994.28;4962094;28;20027;-93
2024/01/13 15:04:45;;;;;;;30.93;13.73;;;;;;;2.28;100.00;101995.13;4958227;28;20102;-93
2024/01/13 15:07:11;;;;;;;29.83;14.80;;;;;;;2.26;100.00;101996.78;4976177;28;20061;-93
2024/01/13 15:09:37;;;;;;;30.57;14.50;;;;;;;2.25;100.00;102002.72;4958070;28;20086;-92